Time;durP1;ratioP1;P1;durP2;ratioP2;P2;SDS_P1;SDS_P2;PMS_P1;PMS_P2;Temp;Humidity;BMP_temperature;BMP_pressure;BME280_temperature;BME280_humidity;BME280_pressure;Samples;Min_cycle;Max_cycle;Signal;HPM_P1;HPM_P2
2023/09/05 00:01:23;;;;;;;4.85;1.80;;;17.30;99.90;;;;;;5019383;28;20054;-34
2023/09/05 00:03:50;;;;;;;3.38;1.98;;;17.30;99.90;;;;;;5263119;23;20066;-33
2023/09/05 00:06:16;;;;;;;2.63;1.63;;;17.30;99.90;;;;;;4960396;28;20088;-33
2023/09/05 00:08:41;;;;;;;3.08;1.65;;;17.30;99.90;;;;;;5200758;23;20042;-33
2023/09/05 00:11:07;;;;;;;2.47;1.52;;;17.30;99.90;;;;;;4979802;28;20055;-33
2023/09/05 00:13:33;;;;;;;3.25;1.83;;;17.30;99.90;;;;;;5197425;23;20049;-33
2023/09/05 00:15:58;;;;;;;3.97;2.15;;;17.20;99.90;;;;;;4987690;28;20793;-33
2023/09/05 00:18:24;;;;;;;4.22;2.38;;;17.20;99.90;;;;;;4989015;23;20055;-34
2023/09/05 00:20:55;;;;;;;13.38;1.90;;;17.20;99.90;;;;;;4934726;28;20067;-33
2023/09/05 00:23:23;;;;;;;3.97;2.05;;;17.20;99.90;;;;;;5196470;23;20063;-33
2023/09/05 00:25:49;;;;;;;2.33;1.50;;;17.20;99.90;;;;;;4948980;28;20055;-33
2023/09/05 00:28:14;;;;;;;3.35;2.17;;;17.10;99.90;;;;;;4966931;23;20055;-34
2023/09/05 00:30:40;;;;;;;3.63;2.08;;;17.10;99.90;;;;;;4950438;28;20078;-36
2023/09/05 00:33:06;;;;;;;4.25;2.28;;;17.10;99.90;;;;;;5211052;23;20483;-33
2023/09/05 00:35:31;;;;;;;4.25;2.25;;;17.00;99.90;;;;;;4935982;28;20063;-33
2023/09/05 00:37:58;;;;;;;2.92;1.92;;;17.00;99.90;;;;;;4945831;23;20138;-34
2023/09/05 00:40:26;;;;;;;4.25;1.92;;;17.00;99.90;;;;;;4920498;29;20048;-33
2023/09/05 00:43:14;;;;;;;6.05;2.22;;;17.00;99.90;;;;;;5134743;23;20138;-33
2023/09/05 00:48:28;;;;;;;5.18;2.17;;;16.90;99.90;;;;;;4964543;23;20272;-33
2023/09/05 00:50:57;;;;;;;4.28;2.38;;;16.90;99.90;;;;;;5078110;23;20017;-90
2023/09/05 00:53:26;;;;;;;9.35;2.50;;;16.90;99.90;;;;;;4944031;28;20047;-83
2023/09/05 00:56:02;;;;;;;3.67;1.75;;;16.90;99.90;;;;;;4942744;28;20832;-83
2023/09/05 00:58:28;;;;;;;3.50;2.13;;;16.80;99.90;;;;;;5172744;23;20047;-33
2023/09/05 01:00:54;;;;;;;2.95;1.63;;;16.80;99.90;;;;;;5132798;23;20037;-34
2023/09/05 01:03:19;;;;;;;3.15;2.05;;;16.80;99.90;;;;;;5040432;23;20051;-34
2023/09/05 01:05:51;;;;;;;3.13;1.83;;;16.80;99.90;;;;;;5075056;23;20050;-34
2023/09/05 01:08:25;;;;;;;3.53;1.80;;;16.80;99.90;;;;;;4964313;28;20050;-34
2023/09/05 01:11:08;;;;;;;3.83;1.70;;;16.70;99.90;;;;;;5218021;23;20074;-33
2023/09/05 01:13:36;;;;;;;5.25;2.55;;;16.70;99.90;;;;;;4963351;28;20051;-32
2023/09/05 01:16:02;;;;;;;3.47;1.90;;;16.70;99.90;;;;;;5189840;23;20477;-33
2023/09/05 01:18:33;;;;;;;5.78;2.20;;;16.70;99.90;;;;;;4929376;29;20056;-33
2023/09/05 01:21:16;;;;;;;3.45;2.13;;;16.60;99.90;;;;;;5212109;23;20047;-32
2023/09/05 01:26:24;;;;;;;3.42;2.10;;;16.50;99.90;;;;;;4945137;28;20062;-34
2023/09/05 01:28:51;;;;;;;3.63;2.00;;;16.50;99.90;;;;;;5122347;23;20025;-83
2023/09/05 01:31:18;;;;;;;5.65;2.22;;;16.50;99.90;;;;;;4929056;28;20060;-83
2023/09/05 01:33:45;;;;;;;3.35;2.20;;;16.40;99.90;;;;;;4928541;28;20600;-84
2023/09/05 01:36:11;;;;;;;4.53;2.20;;;16.40;99.90;;;;;;4992760;23;20059;-33
2023/09/05 01:38:41;;;;;;;5.07;2.20;;;16.40;99.90;;;;;;5194607;23;20311;31
2023/09/05 01:41:07;;;;;;;3.55;1.90;;;16.50;99.90;;;;;;4890275;29;20067;-33
2023/09/05 01:43:32;;;;;;;3.13;1.90;;;16.40;99.90;;;;;;4917617;23;20122;-33
2023/09/05 01:45:58;;;;;;;3.90;2.22;;;16.40;99.90;;;;;;4952291;28;20081;-33
2023/09/05 01:48:25;;;;;;;4.60;2.33;;;16.30;99.90;;;;;;5095863;23;20055;-83
2023/09/05 01:50:52;;;;;;;4.35;2.15;;;16.30;99.90;;;;;;4948403;28;20047;-83
2023/09/05 01:55:46;;;;;;;3.60;2.10;;;16.20;99.90;;;;;;5436307;23;20063;-33
2023/09/05 01:58:11;;;;;;;3.65;2.05;;;16.20;99.90;;;;;;5181781;23;20047;-33
2023/09/05 02:00:37;;;;;;;4.20;2.40;;;16.10;99.90;;;;;;4944414;28;20496;-33
2023/09/05 02:03:03;;;;;;;5.00;2.60;;;16.20;99.90;;;;;;5184550;23;20063;-35
2023/09/05 02:05:29;;;;;;;3.33;2.08;;;16.10;99.90;;;;;;4947184;28;20051;-34
2023/09/05 02:07:56;;;;;;;5.15;2.45;;;16.10;99.90;;;;;;5184416;23;20059;-33
2023/09/05 02:10:22;;;;;;;5.38;3.03;;;16.10;99.90;;;;;;4960976;28;20487;-40
2023/09/05 02:12:49;;;;;;;4.18;2.58;;;16.10;99.90;;;;;;5121368;23;20503;-32
2023/09/05 02:15:14;;;;;;;3.35;2.38;;;16.10;99.90;;;;;;4947933;28;20142;-33
2023/09/05 02:17:40;;;;;;;3.72;2.30;;;16.10;99.90;;;;;;5216795;23;20143;-33
2023/09/05 02:20:06;;;;;;;4.05;2.90;;;16.10;99.90;;;;;;4965929;28;20133;-34
2023/09/05 02:22:32;;;;;;;5.97;2.17;;;16.10;99.90;;;;;;5163253;23;20522;-33
2023/09/05 02:25:00;;;;;;;5.78;2.50;;;16.00;99.90;;;;;;4973472;28;20042;-33
2023/09/05 02:27:26;;;;;;;3.00;1.83;;;16.00;99.90;;;;;;5228852;23;20059;-34
2023/09/05 02:30:01;;;;;;;3.95;2.55;;;16.00;99.90;;;;;;4944426;28;20055;-34
2023/09/05 02:32:29;;;;;;;5.57;2.60;;;15.90;99.90;;;;;;4969434;23;20050;-34
2023/09/05 02:37:36;;;;;;;4.78;2.55;;;15.90;99.90;;;;;;5155899;23;20066;-35
2023/09/05 02:40:06;;;;;;;4.85;2.40;;;15.90;99.90;;;;;;4996038;23;20050;-82
2023/09/05 02:42:35;;;;;;;3.53;2.35;;;15.90;99.90;;;;;;5028334;23;20179;-34
2023/09/05 02:47:36;;;;;;;4.00;2.55;;;15.80;99.90;;;;;;4996346;23;20062;-33
2023/09/05 02:52:37;;;;;;;3.67;2.50;;;15.80;99.90;;;;;;4980654;28;20053;-33
2023/09/05 02:55:03;;;;;;;3.92;2.60;;;15.70;99.90;;;;;;5211911;23;20044;-34
2023/09/05 02:57:29;;;;;;;4.90;3.00;;;15.70;99.90;;;;;;4964202;28;20047;-34
2023/09/05 02:59:55;;;;;;;4.60;2.90;;;15.70;99.90;;;;;;4977697;23;20090;-33
2023/09/05 03:02:24;;;;;;;4.43;2.50;;;15.70;99.90;;;;;;4951063;28;20082;-33
2023/09/05 03:04:54;;;;;;;3.85;2.63;;;15.70;99.90;;;;;;5204341;23;20062;-34
2023/09/05 03:07:22;;;;;;;6.03;2.90;;;15.70;99.90;;;;;;4961955;28;20047;-34
2023/09/05 03:09:51;;;;;;;3.92;2.72;;;15.70;99.90;;;;;;4977260;23;20058;-34
2023/09/05 03:12:17;;;;;;;4.95;3.20;;;15.70;99.90;;;;;;4965516;28;20179;-34
2023/09/05 03:14:44;;;;;;;3.55;2.30;;;15.70;99.90;;;;;;5232371;23;20058;-34
2023/09/05 03:17:11;;;;;;;4.05;2.85;;;15.70;99.90;;;;;;4961657;28;20167;-34
2023/09/05 03:19:38;;;;;;;4.72;2.70;;;15.70;99.90;;;;;;5200768;23;20082;-32
2023/09/05 03:22:04;;;;;;;3.33;2.20;;;15.70;99.90;;;;;;4982054;28;20537;-33
2023/09/05 03:24:30;;;;;;;3.67;2.42;;;15.70;99.90;;;;;;5222301;23;20491;-33
2023/09/05 03:26:56;;;;;;;4.20;2.75;;;15.70;99.90;;;;;;4979970;28;20051;-32
2023/09/05 03:29:21;;;;;;;3.97;2.25;;;15.70;99.90;;;;;;5215205;23;20046;-33
2023/09/05 03:31:47;;;;;;;3.90;2.60;;;15.70;99.90;;;;;;4971685;28;20051;-33
2023/09/05 03:34:13;;;;;;;4.32;2.72;;;15.60;99.90;;;;;;5181693;23;20102;-34
2023/09/05 03:36:38;;;;;;;6.60;3.03;;;15.60;99.90;;;;;;4927263;28;20457;-34
2023/09/05 03:39:04;;;;;;;5.13;2.45;;;15.60;99.90;;;;;;5150120;23;20052;-33
2023/09/05 03:41:30;;;;;;;4.63;2.80;;;15.60;99.90;;;;;;4940807;28;20051;-33
2023/09/05 03:43:56;;;;;;;5.10;3.25;;;15.60;99.90;;;;;;5078750;23;20135;-83
2023/09/05 03:46:26;;;;;;;6.22;3.47;;;15.60;99.90;;;;;;4936056;28;20055;-84
2023/09/05 03:51:21;;;;;;;6.78;3.92;;;15.50;99.90;;;;;;4924116;28;20485;-32
2023/09/05 03:53:47;;;;;;;4.30;2.60;;;15.50;99.90;;;;;;4982108;23;20058;-33
2023/09/05 03:56:13;;;;;;;5.03;2.88;;;15.50;99.90;;;;;;4934272;28;20051;-33
2023/09/05 03:58:39;;;;;;;5.03;2.95;;;15.50;99.90;;;;;;5222255;23;20146;-34
2023/09/05 04:04:01;;;;;;;4.38;3.05;;;15.50;99.90;;;;;;5017929;23;20055;-85
2023/09/05 04:06:27;;;;;;;4.32;3.00;;;15.50;99.90;;;;;;4963337;28;20558;-83
2023/09/05 04:08:53;;;;;;;4.40;2.85;;;15.50;99.90;;;;;;5064720;23;20047;-34
2023/09/05 04:11:18;;;;;;;5.65;3.00;;;15.50;99.90;;;;;;5214038;23;20150;-33
2023/09/05 04:13:44;;;;;;;5.88;3.63;;;15.50;99.90;;;;;;4949546;28;20047;-33
2023/09/05 04:16:10;;;;;;;5.75;3.28;;;15.50;99.90;;;;;;5188673;23;20045;-33
2023/09/05 04:18:35;;;;;;;5.53;3.45;;;15.50;99.90;;;;;;4947439;28;20131;-34
2023/09/05 04:21:01;;;;;;;4.93;3.30;;;15.50;99.90;;;;;;5174187;23;21474;-33
2023/09/05 04:23:27;;;;;;;6.03;3.38;;;15.50;99.90;;;;;;4942305;28;20051;-33
2023/09/05 04:25:57;;;;;;;4.30;2.97;;;15.50;99.90;;;;;;5154917;23;20022;-82
2023/09/05 04:28:26;;;;;;;8.10;3.60;;;15.50;99.90;;;;;;4942916;28;20177;-84
2023/09/05 04:30:55;;;;;;;9.18;3.78;;;15.50;99.90;;;;;;4934564;28;20644;-88
2023/09/05 04:33:31;;;;;;;7.45;3.38;;;15.40;99.90;;;;;;4971475;23;20052;-34
2023/09/05 04:35:57;;;;;;;8.57;3.33;;;15.50;99.90;;;;;;5166459;23;20048;-34
2023/09/05 04:38:23;;;;;;;4.50;3.10;;;15.50;99.90;;;;;;4947562;28;20056;-33
2023/09/05 04:40:49;;;;;;;6.38;3.50;;;15.50;99.90;;;;;;5192636;23;20044;-34
2023/09/05 04:43:15;;;;;;;5.90;3.55;;;15.50;99.90;;;;;;4948223;28;20051;-34
2023/09/05 04:45:40;;;;;;;5.28;3.20;;;15.40;99.90;;;;;;5187518;23;20053;-34
2023/09/05 04:48:06;;;;;;;5.75;3.25;;;15.40;99.90;;;;;;4960932;28;20054;-34
2023/09/05 04:50:32;;;;;;;4.55;3.22;;;15.40;99.90;;;;;;5184853;23;20668;-34
2023/09/05 04:52:58;;;;;;;4.65;2.90;;;15.40;99.90;;;;;;4929832;28;20411;-35
2023/09/05 04:55:24;;;;;;;5.18;2.90;;;15.40;99.90;;;;;;5165384;23;20047;-34
2023/09/05 04:57:50;;;;;;;5.95;3.53;;;15.40;99.90;;;;;;4945092;28;20412;-34
2023/09/05 05:00:18;;;;;;;4.90;3.33;;;15.40;99.90;;;;;;5165721;23;20061;-34
2023/09/05 05:02:44;;;;;;;4.60;3.05;;;15.50;99.90;;;;;;4943005;28;20522;-35
2023/09/05 05:05:11;;;;;;;5.00;3.17;;;15.40;99.90;;;;;;4990305;23;20484;-84
2023/09/05 05:07:41;;;;;;;5.78;3.60;;;15.40;99.90;;;;;;5565485;23;20752;-34
2023/09/05 05:10:07;;;;;;;7.93;3.78;;;15.50;99.90;;;;;;5180011;23;20518;-34
2023/09/05 05:12:33;;;;;;;5.05;3.30;;;15.50;99.90;;;;;;4963482;28;20086;-34
2023/09/05 05:14:58;;;;;;;7.00;3.65;;;15.50;99.90;;;;;;5112513;23;20075;-34
2023/09/05 05:17:24;;;;;;;6.80;3.42;;;15.50;99.90;;;;;;4906767;29;20100;-34
2023/09/05 05:19:50;;;;;;;5.53;3.70;;;15.50;99.90;;;;;;5191906;23;20631;-34
2023/09/05 05:22:16;;;;;;;5.88;3.33;;;15.50;99.90;;;;;;4949021;28;20046;-34
2023/09/05 05:24:41;;;;;;;7.07;3.38;;;15.50;99.90;;;;;;5141105;23;20063;-82
2023/09/05 05:27:10;;;;;;;7.40;3.55;;;15.50;99.90;;;;;;4943325;28;20055;-83
2023/09/05 05:29:36;;;;;;;4.80;3.22;;;15.50;99.90;;;;;;5094375;23;20166;-35
2023/09/05 05:32:01;;;;;;;8.85;3.42;;;15.50;99.90;;;;;;4920047;28;20067;-34
2023/09/05 05:34:28;;;;;;;6.30;3.35;;;15.50;99.90;;;;;;5144045;23;20060;-33
2023/09/05 05:36:53;;;;;;;6.28;3.60;;;15.60;99.90;;;;;;4921623;28;20111;-33
2023/09/05 05:39:22;;;;;;;7.45;3.17;;;15.60;99.90;;;;;;5082104;23;20047;-34
2023/09/05 05:41:48;;;;;;;5.57;3.58;;;15.70;99.90;;;;;;4961685;28;20165;-34
2023/09/05 05:44:16;;;;;;;9.52;3.63;;;15.70;99.90;;;;;;5151881;23;20051;-92
2023/09/05 05:46:43;;;;;;;5.32;3.70;;;15.70;99.90;;;;;;4988603;28;20617;-90
2023/09/05 05:49:09;;;;;;;6.97;3.40;;;15.80;99.90;;;;;;5013522;23;20442;-35
2023/09/05 05:51:37;;;;;;;6.07;3.30;;;15.80;99.90;;;;;;4920176;28;20047;-34
2023/09/05 05:54:03;;;;;;;5.10;3.50;;;15.80;99.90;;;;;;5071153;23;20064;-33
2023/09/05 05:56:29;;;;;;;4.88;3.40;;;15.90;99.90;;;;;;4938790;28;20129;-33
2023/09/05 05:58:55;;;;;;;5.80;3.30;;;15.90;99.90;;;;;;5109851;23;20046;-33
2023/09/05 06:04:06;;;;;;;5.60;3.30;;;16.00;99.90;;;;;;4997334;23;20058;-90
2023/09/05 06:06:33;;;;;;;7.22;2.85;;;16.00;99.90;;;;;;4984161;28;20528;-91
2023/09/05 06:09:02;;;;;;;6.47;3.85;;;16.10;99.90;;;;;;4981792;28;20059;-88
2023/09/05 06:11:31;;;;;;;4.90;2.72;;;16.10;99.90;;;;;;4987684;28;20050;-90
2023/09/05 06:14:00;;;;;;;5.85;3.08;;;16.20;99.90;;;;;;5005205;23;20515;-34
2023/09/05 06:16:26;;;;;;;6.13;2.72;;;16.20;99.90;;;;;;5292095;23;20582;-32
2023/09/05 06:18:52;;;;;;;5.30;3.42;;;16.30;99.90;;;;;;4946660;28;20059;-33
2023/09/05 06:23:46;;;;;;;5.00;3.15;;;16.40;99.90;;;;;;4923122;28;20051;-34
2023/09/05 06:28:48;;;;;;;4.32;2.83;;;16.50;99.90;;;;;;4966972;28;20058;-35
2023/09/05 06:33:49;;;;;;;4.82;3.17;;;16.60;99.90;;;;;;4948131;23;20055;-35
2023/09/05 06:36:15;;;;;;;5.18;3.33;;;16.70;99.90;;;;;;5091757;23;20253;-34
2023/09/05 06:38:41;;;;;;;4.45;2.58;;;16.80;99.90;;;;;;4945043;28;20086;-34
2023/09/05 06:41:09;;;;;;;4.57;3.13;;;16.90;99.90;;;;;;5233366;23;20038;-35
2023/09/05 06:43:34;;;;;;;5.47;2.80;;;17.00;99.90;;;;;;4929842;28;20043;-35
2023/09/05 06:46:07;;;;;;;4.30;2.63;;;17.00;99.90;;;;;;5067587;23;21234;-87
2023/09/05 06:48:36;;;;;;;5.15;2.95;;;17.10;99.90;;;;;;4946147;28;20075;-87
2023/09/05 06:51:03;;;;;;;4.32;2.42;;;17.20;99.90;;;;;;4916311;29;20063;-87
2023/09/05 06:53:30;;;;;;;6.20;2.90;;;17.20;99.90;;;;;;5133345;23;20146;-35
2023/09/05 06:55:56;;;;;;;6.43;2.90;;;17.30;99.90;;;;;;5092520;23;20044;-36
2023/09/05 06:58:24;;;;;;;4.40;2.80;;;17.40;99.90;;;;;;4940956;28;20591;-36
2023/09/05 07:00:54;;;;;;;3.65;2.47;;;17.50;99.90;;;;;;5083210;23;20532;-34
2023/09/05 07:03:24;;;;;;;6.30;2.50;;;17.60;99.90;;;;;;4929494;28;20187;-34
2023/09/05 07:05:51;;;;;;;4.47;2.40;;;17.70;99.90;;;;;;5176848;23;20067;-35
2023/09/05 07:08:17;;;;;;;4.38;2.63;;;17.80;99.90;;;;;;4945024;28;20065;-35
2023/09/05 07:10:42;;;;;;;4.70;2.33;;;17.90;99.90;;;;;;5126343;23;20496;-34
2023/09/05 07:13:08;;;;;;;3.88;2.30;;;18.00;99.90;;;;;;4962294;28;20049;-34
2023/09/05 07:15:34;;;;;;;3.78;2.25;;;18.10;99.90;;;;;;5299490;23;20061;-34
2023/09/05 07:17:59;;;;;;;4.20;2.35;;;18.20;99.90;;;;;;4979547;28;20057;-34
2023/09/05 07:20:25;;;;;;;4.65;2.50;;;18.30;99.90;;;;;;5133551;23;20066;-35
2023/09/05 07:22:51;;;;;;;5.32;1.90;;;18.40;99.90;;;;;;4982354;28;20050;-35
2023/09/05 07:25:18;;;;;;;3.03;1.77;;;18.50;99.90;;;;;;5197884;23;20057;-88
2023/09/05 07:27:44;;;;;;;3.45;2.28;;;18.60;99.90;;;;;;4964871;28;20050;-87
2023/09/05 07:30:11;;;;;;;4.35;1.98;;;18.60;99.90;;;;;;4983142;28;20064;-87
2023/09/05 07:32:38;;;;;;;4.57;2.38;;;18.70;99.90;;;;;;4936061;28;20054;-87
2023/09/05 07:35:05;;;;;;;3.70;1.65;;;18.90;99.90;;;;;;4965417;28;20537;-90
2023/09/05 07:37:33;;;;;;;3.42;1.52;;;18.90;99.90;;;;;;4975637;28;20632;-90
2023/09/05 07:39:59;;;;;;;4.22;2.00;;;19.10;99.90;;;;;;4989308;23;20066;-35
2023/09/05 07:42:27;;;;;;;5.45;1.70;;;19.10;99.90;;;;;;4931169;28;20052;-35
2023/09/05 07:44:53;;;;;;;3.20;1.88;;;19.20;99.90;;;;;;5267265;23;20055;-32
2023/09/05 07:47:18;;;;;;;4.97;1.52;;;19.30;99.90;;;;;;4949894;28;20480;-34
2023/09/05 07:49:44;;;;;;;4.35;1.90;;;19.40;99.90;;;;;;4964886;23;20428;-33
2023/09/05 07:52:10;;;;;;;4.28;1.85;;;19.40;99.90;;;;;;4949092;28;20074;-36
2023/09/05 07:54:36;;;;;;;3.60;1.70;;;19.50;99.90;;;;;;5282527;23;20501;-33
2023/09/05 07:57:03;;;;;;;3.25;1.98;;;19.60;99.90;;;;;;4947996;28;20473;-36
2023/09/05 07:59:28;;;;;;;3.88;1.70;;;19.60;99.90;;;;;;5259766;23;20447;-34
2023/09/05 08:01:57;;;;;;;2.72;1.55;;;19.80;99.90;;;;;;4966681;28;20051;-34
2023/09/05 08:04:23;;;;;;;2.67;1.40;;;19.90;99.90;;;;;;5228922;23;20407;-34
2023/09/05 08:06:49;;;;;;;2.30;1.27;;;20.00;99.90;;;;;;4949429;28;20059;-35
2023/09/05 08:09:15;;;;;;;4.18;1.58;;;20.10;99.90;;;;;;5327171;23;20038;-34
2023/09/05 08:11:40;;;;;;;2.50;1.52;;;20.30;99.90;;;;;;4988810;28;20042;-34
2023/09/05 08:14:06;;;;;;;2.20;1.35;;;20.40;99.90;;;;;;5126851;23;20469;-34
2023/09/05 08:16:31;;;;;;;3.47;1.27;;;20.50;99.90;;;;;;4980636;28;20054;-33
2023/09/05 08:19:00;;;;;;;2.15;1.08;;;20.70;99.90;;;;;;5136620;23;20165;-87
2023/09/05 08:21:26;;;;;;;2.38;1.20;;;20.80;99.90;;;;;;4973425;28;20080;-88
2023/09/05 08:23:53;;;;;;;2.78;1.35;;;20.90;99.90;;;;;;4956146;28;20120;-91
2023/09/05 08:26:25;;;;;;;2.47;1.10;;;21.00;99.90;;;;;;4979479;28;20059;-90
2023/09/05 08:28:51;;;;;;;3.08;1.17;;;21.10;99.90;;;;;;4962350;23;20542;-34
2023/09/05 08:31:16;;;;;;;2.00;1.13;;;21.20;99.90;;;;;;4966197;28;20053;-34
2023/09/05 08:33:43;;;;;;;2.17;0.95;;;21.40;99.90;;;;;;5269097;23;20134;-33
2023/09/05 08:36:09;;;;;;;2.60;1.30;;;21.50;99.90;;;;;;4949988;28;20102;-33
2023/09/05 08:38:49;;;;;;;2.70;1.30;;;21.60;99.90;;;;;;5143175;23;20047;-86
2023/09/05 08:41:18;;;;;;;4.03;1.23;;;21.80;99.90;;;;;;4972243;28;20569;-86
2023/09/05 08:46:15;;;;;;;2.38;1.00;;;22.00;99.90;;;;;;4946692;28;20113;-34
2023/09/05 08:48:41;;;;;;;4.05;1.10;;;22.10;99.90;;;;;;5019405;23;20051;-34
2023/09/05 08:51:10;;;;;;;3.47;1.15;;;22.30;99.90;;;;;;4965566;28;20057;-34
2023/09/05 08:53:40;;;;;;;1.85;0.90;;;22.40;99.90;;;;;;4988298;23;20074;-33
2023/09/05 08:56:07;;;;;;;2.75;0.98;;;22.50;99.90;;;;;;5023694;23;20034;-34
2023/09/05 08:58:34;;;;;;;2.45;0.88;;;22.70;99.90;;;;;;4949438;28;20051;-33
2023/09/05 09:01:00;;;;;;;1.98;1.00;;;22.90;99.90;;;;;;5031756;23;21458;-34
2023/09/05 09:03:26;;;;;;;1.83;0.70;;;23.00;99.90;;;;;;4962475;28;20076;-34
2023/09/05 09:05:52;;;;;;;2.08;1.00;;;23.10;99.90;;;;;;4982232;23;20083;-33
2023/09/05 09:08:18;;;;;;;2.63;1.10;;;23.20;99.90;;;;;;4949314;28;20047;-33
2023/09/05 09:11:07;;;;;;;3.78;0.80;;;23.20;99.90;;;;;;5091052;23;20416;-33
2023/09/05 09:13:33;;;;;;;2.50;0.98;;;23.30;99.90;;;;;;4984142;28;20141;-34
2023/09/05 09:16:02;;;;;;;2.90;1.02;;;23.40;99.90;;;;;;5309800;23;20134;-33
2023/09/05 09:18:31;;;;;;;1.65;0.90;;;23.50;99.90;;;;;;4948490;28;20073;-33
2023/09/05 09:21:02;;;;;;;2.95;0.85;;;23.60;99.90;;;;;;4991222;23;20058;-87
2023/09/05 09:23:29;;;;;;;2.45;1.00;;;23.70;99.90;;;;;;4987620;28;20038;-88
2023/09/05 09:25:57;;;;;;;1.88;0.80;;;23.80;99.90;;;;;;5079850;23;20576;-35
2023/09/05 09:28:26;;;;;;;1.80;0.70;;;24.00;99.90;;;;;;4963781;28;20791;-35
2023/09/05 09:30:55;;;;;;;1.63;0.80;;;24.10;99.90;;;;;;5159489;23;20063;-34
2023/09/05 09:33:22;;;;;;;1.25;0.68;;;24.20;99.90;;;;;;4950363;28;20579;-36
2023/09/05 09:36:17;;;;;;;2.25;1.10;;;24.30;99.90;;;;;;5106789;23;20074;-34
2023/09/05 09:41:14;;;;;;;1.00;0.80;;;24.60;99.90;;;;;;4941830;28;20049;-87
2023/09/05 09:43:42;;;;;;;2.15;0.90;;;24.60;99.90;;;;;;4970746;28;20512;-87
2023/09/05 09:46:08;;;;;;;3.25;1.05;;;24.70;99.90;;;;;;4994360;23;20054;-33
2023/09/05 09:48:35;;;;;;;2.10;0.90;;;24.70;99.90;;;;;;5045538;23;20054;-33
2023/09/05 09:51:05;;;;;;;1.85;0.90;;;24.80;99.90;;;;;;4983679;28;21624;-33
2023/09/05 09:53:38;;;;;;;2.20;1.05;;;24.80;99.90;;;;;;5127308;23;20364;-88
2023/09/05 09:56:15;;;;;;;2.55;0.80;;;24.90;99.90;;;;;;4948092;28;20055;-88
2023/09/05 10:01:19;;;;;;;1.90;1.00;;;25.00;99.90;;;;;;4947824;28;20051;-34
2023/09/05 10:03:45;;;;;;;2.67;0.80;;;25.10;99.90;;;;;;5288301;23;20561;-34
2023/09/05 10:06:11;;;;;;;1.98;1.00;;;25.10;99.90;;;;;;4979064;28;20050;-34
2023/09/05 10:08:38;;;;;;;1.65;0.77;;;25.20;99.90;;;;;;5029124;23;20054;-34
2023/09/05 10:11:04;;;;;;;1.30;0.75;;;25.20;99.90;;;;;;4946687;28;20100;-34
2023/09/05 10:13:35;;;;;;;1.58;0.90;;;25.30;99.90;;;;;;5203844;23;20061;-33
2023/09/05 10:16:01;;;;;;;2.20;1.00;;;25.40;99.90;;;;;;4975136;28;20530;-34
2023/09/05 10:18:29;;;;;;;1.42;0.60;;;25.40;99.90;;;;;;5287298;23;20064;-33
2023/09/05 10:20:58;;;;;;;2.65;0.75;;;25.50;99.90;;;;;;4984031;28;20054;-33
2023/09/05 10:23:25;;;;;;;1.17;0.73;;;25.60;99.90;;;;;;5256524;23;20082;-33
2023/09/05 10:25:51;;;;;;;1.20;0.75;;;25.70;99.90;;;;;;4984442;28;20153;-33
2023/09/05 10:28:18;;;;;;;1.42;0.75;;;25.70;99.90;;;;;;5279137;23;20134;-32
2023/09/05 10:30:49;;;;;;;2.00;0.75;;;25.70;99.90;;;;;;4926623;28;20516;-32
2023/09/05 10:33:16;;;;;;;1.83;0.82;;;25.80;99.90;;;;;;4976159;23;20042;-33
2023/09/05 10:35:45;;;;;;;1.30;0.77;;;25.80;99.90;;;;;;4980264;28;20054;-33
2023/09/05 10:38:13;;;;;;;1.83;0.90;;;25.90;99.90;;;;;;4987948;23;20229;-34
2023/09/05 10:43:19;;;;;;;1.50;0.82;;;26.00;99.90;;;;;;5192090;23;20113;-33
2023/09/05 10:48:36;;;;;;;1.48;0.73;;;26.10;99.90;;;;;;4965264;28;19934;-33
2023/09/05 10:51:10;;;;;;;1.48;0.90;;;26.20;99.90;;;;;;5095031;23;20062;-32
2023/09/05 10:53:44;;;;;;;3.05;1.00;;;26.30;99.90;;;;;;4964875;28;20499;-34
2023/09/05 10:56:40;;;;;;;2.00;1.10;;;26.40;99.90;;;;;;4968228;23;20062;-35
2023/09/05 11:01:44;;;;;;;3.30;1.02;;;26.50;99.90;;;;;;4945450;28;20099;-35
2023/09/05 11:04:20;;;;;;;2.25;0.93;;;26.60;99.90;;;;;;5051585;23;20057;-93
2023/09/05 11:06:54;;;;;;;3.63;1.15;;;26.60;99.90;;;;;;4983054;28;20431;-88
2023/09/05 11:09:20;;;;;;;4.05;1.55;;;26.60;99.90;;;;;;4963253;28;20100;-87
2023/09/05 11:11:53;;;;;;;1.55;0.90;;;26.70;99.90;;;;;;5095896;23;20134;-34
2023/09/05 11:14:30;;;;;;;1.88;1.08;;;26.80;99.90;;;;;;5292419;23;20069;-34
2023/09/05 11:16:56;;;;;;;2.40;0.93;;;26.80;99.90;;;;;;4978199;28;20054;-34
2023/09/05 11:19:40;;;;;;;1.70;0.90;;;26.80;99.90;;;;;;5178302;23;20058;-33
2023/09/05 11:22:15;;;;;;;1.63;0.90;;;27.00;99.90;;;;;;4937971;28;20074;-33
2023/09/05 11:24:49;;;;;;;3.90;1.00;;;27.10;99.90;;;;;;4937594;23;20425;-33
2023/09/05 11:29:58;;;;;;;1.98;0.95;;;27.30;99.90;;;;;;5120983;23;20051;-34
2023/09/05 11:32:33;;;;;;;2.25;1.00;;;27.30;99.90;;;;;;5006025;23;20057;-90
2023/09/05 11:35:00;;;;;;;2.75;0.82;;;27.40;99.90;;;;;;5001588;23;20133;-33
2023/09/05 11:40:17;;;;;;;3.25;1.13;;;27.50;99.90;;;;;;5029618;23;20058;-34
2023/09/05 11:42:43;;;;;;;3.13;1.25;;;27.60;99.90;;;;;;4988058;23;20059;-34
2023/09/05 11:45:19;;;;;;;1.35;0.85;;;27.70;99.90;;;;;;4945957;28;20058;-34
2023/09/05 11:47:46;;;;;;;1.10;0.82;;;27.80;99.90;;;;;;5030809;23;20094;-34
2023/09/05 11:50:14;;;;;;;1.73;1.10;;;27.80;99.90;;;;;;4947390;28;20531;-33
2023/09/05 11:55:31;;;;;;;1.40;0.90;;;28.00;99.90;;;;;;4903312;29;20104;-33
2023/09/05 11:57:58;;;;;;;1.65;0.82;;;28.00;99.90;;;;;;5126812;23;20515;-33
2023/09/05 12:03:01;;;;;;;1.50;0.93;;;28.30;99.90;;;;;;4942431;28;20129;-34
2023/09/05 12:08:05;;;;;;;1.92;0.80;;;28.40;99.90;;;;;;5054114;23;20120;-35
2023/09/05 12:10:43;;;;;;;2.45;0.80;;;28.50;99.90;;;;;;5021992;23;20515;-90
2023/09/05 12:13:10;;;;;;;2.53;1.17;;;28.50;99.90;;;;;;5043310;23;20088;-34
2023/09/05 12:15:37;;;;;;;1.27;0.88;;;28.60;99.90;;;;;;5051985;23;20094;-34
2023/09/05 12:18:05;;;;;;;1.92;1.00;;;28.70;99.90;;;;;;4963807;28;20431;-34
2023/09/05 12:20:35;;;;;;;1.83;1.08;;;28.90;99.90;;;;;;5176092;23;20133;-90
2023/09/05 12:23:05;;;;;;;1.92;1.10;;;29.10;99.90;;;;;;4969912;28;20055;-91
2023/09/05 12:28:20;;;;;;;2.88;1.10;;;29.30;99.90;;;;;;5023098;28;20045;-34
2023/09/05 12:30:47;;;;;;;2.22;1.20;;;29.40;99.90;;;;;;5142866;23;20427;-34
2023/09/05 12:35:52;;;;;;;1.35;1.05;;;29.60;99.90;;;;;;5113669;23;20059;-35
2023/09/05 12:40:54;;;;;;;0.95;0.75;;;29.90;99.90;;;;;;3531730;23;20058;-34
2023/09/05 12:43:20;;;;;;;2.97;1.38;;;30.10;99.90;;;;;;4974147;23;20065;-34
2023/09/05 12:45:48;;;;;;;3.05;1.55;;;30.10;99.90;;;;;;4978443;28;20467;-34
2023/09/05 12:48:14;;;;;;;3.65;1.85;;;30.10;99.90;;;;;;5294754;23;21389;-34
2023/09/05 12:50:41;;;;;;;2.45;1.50;;;30.10;99.90;;;;;;4976097;28;20144;-33
2023/09/05 12:55:37;;;;;;;2.10;1.40;;;30.60;99.90;;;;;;4983196;28;20058;-35
2023/09/05 12:58:04;;;;;;;3.67;1.90;;;30.90;99.90;;;;;;5211980;23;20025;-34
2023/09/05 13:00:34;;;;;;;4.10;1.45;;;31.30;99.90;;;;;;5025589;28;20129;-34
2023/09/05 13:03:07;;;;;;;3.30;1.60;;;31.70;99.90;;;;;;5153240;23;20075;-34
2023/09/05 13:05:33;;;;;;;2.53;1.67;;;32.10;99.90;;;;;;5043358;28;20537;-34
2023/09/05 13:07:59;;;;;;;2.08;1.48;;;32.40;99.90;;;;;;5168500;23;20059;-35
2023/09/05 13:10:25;;;;;;;2.67;1.00;;;32.80;99.90;;;;;;5042201;28;20501;-34
2023/09/05 13:12:51;;;;;;;2.00;0.95;;;33.20;99.90;;;;;;5276492;23;20050;-34
2023/09/05 13:15:17;;;;;;;1.73;0.88;;;33.60;99.90;;;;;;5027568;28;20053;-34
2023/09/05 13:17:45;;;;;;;1.42;0.80;;;33.90;99.90;;;;;;5167213;23;20058;-34
2023/09/05 13:20:15;;;;;;;2.65;0.60;;;34.10;99.90;;;;;;4964683;28;20132;-34
2023/09/05 13:22:47;;;;;;;1.13;0.80;;;34.40;99.90;;;;;;5235484;23;20555;-34
2023/09/05 13:28:05;;;;;;;1.77;0.90;;;35.00;99.90;;;;;;5116995;23;20045;-87
2023/09/05 13:30:35;;;;;;;1.42;1.17;;;35.40;99.90;;;;;;5057442;28;20045;-93
2023/09/05 13:33:04;;;;;;;2.10;1.15;;;35.70;99.90;;;;;;5033383;23;20233;-34
2023/09/05 13:38:05;;;;;;;1.45;0.80;;;36.40;99.90;;;;;;5233558;23;20052;-34
2023/09/05 13:43:06;;;;;;;1.05;0.80;;;37.00;99.90;;;;;;5035881;22;20061;-88
2023/09/05 13:45:38;;;;;;;2.30;0.75;;;37.40;99.90;;;;;;4990783;28;20112;-88
2023/09/05 13:48:05;;;;;;;1.00;0.60;;;37.60;99.90;;;;;;5005279;23;20057;-35
2023/09/05 13:50:31;;;;;;;2.28;1.00;;;37.70;99.90;;;;;;5034268;22;20061;-33
2023/09/05 13:52:56;;;;;;;1.02;0.70;;;38.00;99.90;;;;;;5023115;28;20433;-33
2023/09/05 13:55:22;;;;;;;1.40;0.80;;;38.10;99.90;;;;;;5317500;22;20037;-33
2023/09/05 13:57:49;;;;;;;1.63;0.70;;;38.40;99.90;;;;;;5046227;28;20052;-33
2023/09/05 14:03:06;;;;;;;7.05;1.00;;;38.80;99.90;;;;;;4964510;28;20499;-35
2023/09/05 14:05:31;;;;;;;0.73;0.55;;;39.00;99.90;;;;;;5279211;23;20140;-33
2023/09/05 14:07:57;;;;;;;1.00;0.80;;;39.30;99.90;;;;;;5037059;28;20465;-34
2023/09/05 14:10:23;;;;;;;1.55;0.90;;;39.60;99.90;;;;;;5279522;22;20077;-34
2023/09/05 14:12:48;;;;;;;1.98;0.93;;;39.70;99.90;;;;;;5036473;28;20041;-34